sensor_id;sensor_type;location;lat;lon;timestamp;P1;durP1;ratioP1;P2;durP2;ratioP2
15393;SDS011;7795;47.986;11.868;2023-08-01T00:01:23;5.40;;;1.93;;
15393;SDS011;7795;47.986;11.868;2023-08-01T00:03:48;4.43;;;2.07;;
15393;SDS011;7795;47.986;11.868;2023-08-01T00:06:14;3.50;;;2.00;;
15393;SDS011;7795;47.986;11.868;2023-08-01T00:08:40;5.70;;;2.50;;
15393;SDS011;7795;47.986;11.868;2023-08-01T00:11:07;2.97;;;1.80;;
15393;SDS011;7795;47.986;11.868;2023-08-01T00:13:35;4.00;;;2.00;;
15393;SDS011;7795;47.986;11.868;2023-08-01T00:16:00;3.03;;;1.80;;
15393;SDS011;7795;47.986;11.868;2023-08-01T00:18:26;2.73;;;1.90;;
15393;SDS011;7795;47.986;11.868;2023-08-01T00:20:52;2.57;;;1.90;;
15393;SDS011;7795;47.986;11.868;2023-08-01T00:23:18;4.03;;;1.80;;
15393;SDS011;7795;47.986;11.868;2023-08-01T00:25:44;2.47;;;2.27;;
15393;SDS011;7795;47.986;11.868;2023-08-01T00:28:17;3.30;;;2.00;;
15393;SDS011;7795;47.986;11.868;2023-08-01T00:30:43;3.60;;;2.30;;
15393;SDS011;7795;47.986;11.868;2023-08-01T00:33:09;3.70;;;2.50;;
15393;SDS011;7795;47.986;11.868;2023-08-01T00:35:35;2.93;;;2.20;;
15393;SDS011;7795;47.986;11.868;2023-08-01T00:38:00;2.87;;;2.33;;
15393;SDS011;7795;47.986;11.868;2023-08-01T00:40:29;3.33;;;2.10;;
15393;SDS011;7795;47.986;11.868;2023-08-01T00:42:55;3.47;;;2.00;;
15393;SDS011;7795;47.986;11.868;2023-08-01T00:45:23;3.23;;;2.07;;
15393;SDS011;7795;47.986;11.868;2023-08-01T00:47:49;2.30;;;1.90;;
15393;SDS011;7795;47.986;11.868;2023-08-01T00:50:15;2.53;;;2.03;;
15393;SDS011;7795;47.986;11.868;2023-08-01T00:52:41;3.70;;;2.60;;
15393;SDS011;7795;47.986;11.868;2023-08-01T00:55:07;2.87;;;2.23;;
15393;SDS011;7795;47.986;11.868;2023-08-01T00:57:33;2.57;;;2.20;;
15393;SDS011;7795;47.986;11.868;2023-08-01T00:59:59;2.40;;;2.20;;
15393;SDS011;7795;47.986;11.868;2023-08-01T01:02:26;3.40;;;2.00;;
15393;SDS011;7795;47.986;11.868;2023-08-01T01:04:52;2.70;;;2.20;;
15393;SDS011;7795;47.986;11.868;2023-08-01T01:07:18;2.67;;;2.10;;
15393;SDS011;7795;47.986;11.868;2023-08-01T01:09:45;3.33;;;2.10;;
15393;SDS011;7795;47.986;11.868;2023-08-01T01:12:11;4.13;;;2.30;;
15393;SDS011;7795;47.986;11.868;2023-08-01T01:14:37;2.20;;;2.00;;
15393;SDS011;7795;47.986;11.868;2023-08-01T01:17:03;2.40;;;2.10;;
15393;SDS011;7795;47.986;11.868;2023-08-01T01:19:31;5.97;;;2.43;;
15393;SDS011;7795;47.986;11.868;2023-08-01T01:24:43;3.10;;;2.23;;
15393;SDS011;7795;47.986;11.868;2023-08-01T01:27:10;3.57;;;1.93;;
15393;SDS011;7795;47.986;11.868;2023-08-01T01:29:38;2.67;;;2.23;;
15393;SDS011;7795;47.986;11.868;2023-08-01T01:32:04;2.50;;;1.77;;
15393;SDS011;7795;47.986;11.868;2023-08-01T01:34:31;3.33;;;2.07;;
15393;SDS011;7795;47.986;11.868;2023-08-01T01:36:57;2.90;;;2.20;;
15393;SDS011;7795;47.986;11.868;2023-08-01T01:39:24;4.10;;;2.40;;
15393;SDS011;7795;47.986;11.868;2023-08-01T01:41:50;3.57;;;2.30;;
15393;SDS011;7795;47.986;11.868;2023-08-01T01:44:16;2.20;;;1.90;;
15393;SDS011;7795;47.986;11.868;2023-08-01T01:46:41;4.13;;;2.20;;
15393;SDS011;7795;47.986;11.868;2023-08-01T01:49:07;2.60;;;2.00;;
15393;SDS011;7795;47.986;11.868;2023-08-01T01:51:33;2.93;;;1.73;;
15393;SDS011;7795;47.986;11.868;2023-08-01T01:53:59;4.50;;;2.20;;
15393;SDS011;7795;47.986;11.868;2023-08-01T01:56:26;3.23;;;2.27;;
15393;SDS011;7795;47.986;11.868;2023-08-01T01:58:51;2.93;;;2.20;;
15393;SDS011;7795;47.986;11.868;2023-08-01T02:01:17;2.47;;;2.17;;
15393;SDS011;7795;47.986;11.868;2023-08-01T02:03:43;3.37;;;2.20;;
15393;SDS011;7795;47.986;11.868;2023-08-01T02:06:08;3.17;;;2.30;;
15393;SDS011;7795;47.986;11.868;2023-08-01T02:08:34;2.40;;;1.90;;
15393;SDS011;7795;47.986;11.868;2023-08-01T02:11:00;4.17;;;1.80;;
15393;SDS011;7795;47.986;11.868;2023-08-01T02:13:28;4.13;;;2.27;;
15393;SDS011;7795;47.986;11.868;2023-08-01T02:15:54;2.63;;;2.03;;
15393;SDS011;7795;47.986;11.868;2023-08-01T02:18:20;4.00;;;1.93;;
15393;SDS011;7795;47.986;11.868;2023-08-01T02:20:46;2.80;;;2.10;;
15393;SDS011;7795;47.986;11.868;2023-08-01T02:23:12;3.73;;;1.97;;
15393;SDS011;7795;47.986;11.868;2023-08-01T02:25:38;2.87;;;2.30;;
15393;SDS011;7795;47.986;11.868;2023-08-01T02:28:04;2.53;;;2.10;;
15393;SDS011;7795;47.986;11.868;2023-08-01T02:30:31;2.80;;;2.10;;
15393;SDS011;7795;47.986;11.868;2023-08-01T02:32:57;2.83;;;2.23;;
15393;SDS011;7795;47.986;11.868;2023-08-01T02:35:23;2.70;;;1.80;;
15393;SDS011;7795;47.986;11.868;2023-08-01T02:37:48;3.23;;;2.20;;
15393;SDS011;7795;47.986;11.868;2023-08-01T02:40:14;2.37;;;1.90;;
15393;SDS011;7795;47.986;11.868;2023-08-01T02:42:40;2.70;;;2.30;;
15393;SDS011;7795;47.986;11.868;2023-08-01T02:45:06;2.70;;;2.10;;
15393;SDS011;7795;47.986;11.868;2023-08-01T02:47:33;4.73;;;2.40;;
15393;SDS011;7795;47.986;11.868;2023-08-01T02:49:59;2.50;;;2.20;;
15393;SDS011;7795;47.986;11.868;2023-08-01T02:52:25;7.43;;;2.87;;
15393;SDS011;7795;47.986;11.868;2023-08-01T02:54:50;2.77;;;2.20;;
15393;SDS011;7795;47.986;11.868;2023-08-01T02:57:16;5.73;;;2.50;;
15393;SDS011;7795;47.986;11.868;2023-08-01T02:59:42;3.67;;;2.40;;
15393;SDS011;7795;47.986;11.868;2023-08-01T03:02:08;2.23;;;1.97;;
15393;SDS011;7795;47.986;11.868;2023-08-01T03:04:35;4.17;;;2.13;;
15393;SDS011;7795;47.986;11.868;2023-08-01T03:07:00;7.97;;;2.73;;
15393;SDS011;7795;47.986;11.868;2023-08-01T03:09:26;5.20;;;2.20;;
15393;SDS011;7795;47.986;11.868;2023-08-01T03:11:52;4.10;;;2.00;;
15393;SDS011;7795;47.986;11.868;2023-08-01T03:14:18;2.57;;;2.00;;
15393;SDS011;7795;47.986;11.868;2023-08-01T03:16:43;4.73;;;2.40;;
15393;SDS011;7795;47.986;11.868;2023-08-01T03:19:09;3.30;;;2.20;;
15393;SDS011;7795;47.986;11.868;2023-08-01T03:21:36;5.47;;;2.40;;
15393;SDS011;7795;47.986;11.868;2023-08-01T03:24:03;5.97;;;2.70;;
15393;SDS011;7795;47.986;11.868;2023-08-01T03:26:29;4.53;;;2.27;;
15393;SDS011;7795;47.986;11.868;2023-08-01T03:28:55;2.93;;;2.20;;
15393;SDS011;7795;47.986;11.868;2023-08-01T03:31:21;4.80;;;2.40;;
15393;SDS011;7795;47.986;11.868;2023-08-01T03:33:47;4.53;;;2.30;;
15393;SDS011;7795;47.986;11.868;2023-08-01T03:36:12;3.17;;;2.10;;
15393;SDS011;7795;47.986;11.868;2023-08-01T03:38:40;2.97;;;2.20;;
15393;SDS011;7795;47.986;11.868;2023-08-01T03:41:05;2.67;;;1.70;;
15393;SDS011;7795;47.986;11.868;2023-08-01T03:43:31;2.50;;;2.10;;
15393;SDS011;7795;47.986;11.868;2023-08-01T03:45:57;4.43;;;2.23;;
15393;SDS011;7795;47.986;11.868;2023-08-01T03:48:23;2.87;;;2.10;;
15393;SDS011;7795;47.986;11.868;2023-08-01T03:50:48;4.20;;;2.43;;
15393;SDS011;7795;47.986;11.868;2023-08-01T03:53:14;4.23;;;1.93;;
15393;SDS011;7795;47.986;11.868;2023-08-01T03:55:43;3.10;;;2.37;;
15393;SDS011;7795;47.986;11.868;2023-08-01T03:58:09;3.17;;;2.47;;
15393;SDS011;7795;47.986;11.868;2023-08-01T04:00:35;3.10;;;2.20;;
15393;SDS011;7795;47.986;11.868;2023-08-01T04:03:00;2.60;;;2.07;;
15393;SDS011;7795;47.986;11.868;2023-08-01T04:05:26;3.10;;;2.30;;
15393;SDS011;7795;47.986;11.868;2023-08-01T04:07:52;2.70;;;2.23;;
15393;SDS011;7795;47.986;11.868;2023-08-01T04:10:21;2.93;;;2.23;;
15393;SDS011;7795;47.986;11.868;2023-08-01T04:12:49;3.83;;;2.30;;
15393;SDS011;7795;47.986;11.868;2023-08-01T04:15:14;4.23;;;2.47;;
15393;SDS011;7795;47.986;11.868;2023-08-01T04:17:40;5.67;;;3.00;;
15393;SDS011;7795;47.986;11.868;2023-08-01T04:20:06;2.77;;;2.00;;
15393;SDS011;7795;47.986;11.868;2023-08-01T04:22:33;5.73;;;2.40;;
15393;SDS011;7795;47.986;11.868;2023-08-01T04:25:00;6.47;;;3.13;;
15393;SDS011;7795;47.986;11.868;2023-08-01T04:27:26;4.40;;;2.30;;
15393;SDS011;7795;47.986;11.868;2023-08-01T04:29:54;4.47;;;2.03;;
15393;SDS011;7795;47.986;11.868;2023-08-01T04:32:20;3.13;;;2.67;;
15393;SDS011;7795;47.986;11.868;2023-08-01T04:34:46;2.70;;;2.10;;
15393;SDS011;7795;47.986;11.868;2023-08-01T04:37:12;2.20;;;2.00;;
15393;SDS011;7795;47.986;11.868;2023-08-01T04:39:37;2.60;;;2.40;;
15393;SDS011;7795;47.986;11.868;2023-08-01T04:42:04;3.10;;;2.00;;
15393;SDS011;7795;47.986;11.868;2023-08-01T04:44:31;3.30;;;2.33;;
15393;SDS011;7795;47.986;11.868;2023-08-01T04:46:58;5.77;;;2.33;;
15393;SDS011;7795;47.986;11.868;2023-08-01T04:49:23;3.47;;;2.00;;
15393;SDS011;7795;47.986;11.868;2023-08-01T04:51:49;3.73;;;2.60;;
15393;SDS011;7795;47.986;11.868;2023-08-01T04:54:15;2.80;;;2.33;;
15393;SDS011;7795;47.986;11.868;2023-08-01T04:56:41;4.37;;;2.57;;
15393;SDS011;7795;47.986;11.868;2023-08-01T04:59:07;4.87;;;2.70;;
15393;SDS011;7795;47.986;11.868;2023-08-01T05:01:33;2.80;;;2.20;;
15393;SDS011;7795;47.986;11.868;2023-08-01T05:04:00;3.10;;;2.80;;
15393;SDS011;7795;47.986;11.868;2023-08-01T05:06:26;3.07;;;2.30;;
15393;SDS011;7795;47.986;11.868;2023-08-01T05:08:53;2.90;;;2.30;;
15393;SDS011;7795;47.986;11.868;2023-08-01T05:11:18;2.70;;;2.03;;
15393;SDS011;7795;47.986;11.868;2023-08-01T05:13:44;3.17;;;2.50;;
15393;SDS011;7795;47.986;11.868;2023-08-01T05:16:10;3.83;;;2.80;;
15393;SDS011;7795;47.986;11.868;2023-08-01T05:18:36;3.40;;;2.47;;
15393;SDS011;7795;47.986;11.868;2023-08-01T05:21:03;3.27;;;2.43;;
15393;SDS011;7795;47.986;11.868;2023-08-01T05:23:29;3.90;;;2.80;;
15393;SDS011;7795;47.986;11.868;2023-08-01T05:25:54;4.33;;;2.60;;
15393;SDS011;7795;47.986;11.868;2023-08-01T05:28:20;3.43;;;2.40;;
15393;SDS011;7795;47.986;11.868;2023-08-01T05:30:46;3.53;;;2.73;;
15393;SDS011;7795;47.986;11.868;2023-08-01T05:33:12;4.53;;;2.80;;
15393;SDS011;7795;47.986;11.868;2023-08-01T05:35:38;3.17;;;2.47;;
15393;SDS011;7795;47.986;11.868;2023-08-01T05:38:05;4.80;;;3.00;;
15393;SDS011;7795;47.986;11.868;2023-08-01T05:40:31;4.90;;;2.63;;
15393;SDS011;7795;47.986;11.868;2023-08-01T05:42:57;4.70;;;2.70;;
15393;SDS011;7795;47.986;11.868;2023-08-01T05:45:22;4.73;;;3.10;;
15393;SDS011;7795;47.986;11.868;2023-08-01T05:47:48;3.33;;;2.70;;
15393;SDS011;7795;47.986;11.868;2023-08-01T05:50:14;2.83;;;2.50;;
15393;SDS011;7795;47.986;11.868;2023-08-01T05:52:40;4.17;;;2.93;;
15393;SDS011;7795;47.986;11.868;2023-08-01T05:55:07;3.87;;;2.57;;
15393;SDS011;7795;47.986;11.868;2023-08-01T05:57:33;7.80;;;2.70;;
15393;SDS011;7795;47.986;11.868;2023-08-01T05:59:59;4.13;;;2.73;;
15393;SDS011;7795;47.986;11.868;2023-08-01T06:02:25;3.80;;;2.70;;
15393;SDS011;7795;47.986;11.868;2023-08-01T06:04:51;3.73;;;2.67;;
15393;SDS011;7795;47.986;11.868;2023-08-01T06:07:16;5.10;;;3.43;;
15393;SDS011;7795;47.986;11.868;2023-08-01T06:09:47;4.00;;;2.57;;
15393;SDS011;7795;47.986;11.868;2023-08-01T06:12:15;3.80;;;2.60;;
15393;SDS011;7795;47.986;11.868;2023-08-01T06:14:41;4.70;;;3.00;;
15393;SDS011;7795;47.986;11.868;2023-08-01T06:17:06;4.37;;;2.80;;
15393;SDS011;7795;47.986;11.868;2023-08-01T06:19:32;7.00;;;3.60;;
15393;SDS011;7795;47.986;11.868;2023-08-01T06:21:58;4.80;;;2.80;;
15393;SDS011;7795;47.986;11.868;2023-08-01T06:24:25;4.03;;;2.70;;
15393;SDS011;7795;47.986;11.868;2023-08-01T06:26:51;3.37;;;3.07;;
15393;SDS011;7795;47.986;11.868;2023-08-01T06:29:18;4.07;;;2.80;;
15393;SDS011;7795;47.986;11.868;2023-08-01T06:31:43;4.07;;;2.90;;
15393;SDS011;7795;47.986;11.868;2023-08-01T06:34:09;3.63;;;2.87;;
15393;SDS011;7795;47.986;11.868;2023-08-01T06:36:35;3.73;;;3.37;;
15393;SDS011;7795;47.986;11.868;2023-08-01T06:39:01;4.57;;;3.10;;
15393;SDS011;7795;47.986;11.868;2023-08-01T06:41:27;4.73;;;2.60;;
15393;SDS011;7795;47.986;11.868;2023-08-01T06:43:52;5.57;;;2.73;;
15393;SDS011;7795;47.986;11.868;2023-08-01T06:46:19;5.30;;;2.77;;
15393;SDS011;7795;47.986;11.868;2023-08-01T06:48:45;6.07;;;2.97;;
15393;SDS011;7795;47.986;11.868;2023-08-01T06:51:11;3.27;;;2.60;;
15393;SDS011;7795;47.986;11.868;2023-08-01T06:53:37;4.13;;;2.70;;
15393;SDS011;7795;47.986;11.868;2023-08-01T06:56:02;3.67;;;2.77;;
15393;SDS011;7795;47.986;11.868;2023-08-01T06:58:28;3.77;;;2.70;;
15393;SDS011;7795;47.986;11.868;2023-08-01T07:00:54;4.27;;;2.67;;
15393;SDS011;7795;47.986;11.868;2023-08-01T07:03:21;3.20;;;2.60;;
15393;SDS011;7795;47.986;11.868;2023-08-01T07:05:47;3.87;;;2.70;;
15393;SDS011;7795;47.986;11.868;2023-08-01T07:08:13;3.33;;;2.80;;
15393;SDS011;7795;47.986;11.868;2023-08-01T07:10:38;4.33;;;2.70;;
15393;SDS011;7795;47.986;11.868;2023-08-01T07:13:04;3.17;;;2.67;;
15393;SDS011;7795;47.986;11.868;2023-08-01T07:15:30;3.93;;;3.17;;
15393;SDS011;7795;47.986;11.868;2023-08-01T07:17:56;3.47;;;2.90;;
15393;SDS011;7795;47.986;11.868;2023-08-01T07:20:23;3.50;;;2.60;;
15393;SDS011;7795;47.986;11.868;2023-08-01T07:22:49;5.63;;;2.70;;
15393;SDS011;7795;47.986;11.868;2023-08-01T07:25:15;5.37;;;3.00;;
15393;SDS011;7795;47.986;11.868;2023-08-01T07:27:41;3.30;;;2.40;;
15393;SDS011;7795;47.986;11.868;2023-08-01T07:30:08;3.03;;;2.63;;
15393;SDS011;7795;47.986;11.868;2023-08-01T07:32:35;4.57;;;2.93;;
15393;SDS011;7795;47.986;11.868;2023-08-01T07:35:02;4.70;;;2.83;;
15393;SDS011;7795;47.986;11.868;2023-08-01T07:37:30;3.23;;;2.80;;
15393;SDS011;7795;47.986;11.868;2023-08-01T07:39:56;3.77;;;2.83;;
15393;SDS011;7795;47.986;11.868;2023-08-01T07:42:22;3.37;;;2.73;;
15393;SDS011;7795;47.986;11.868;2023-08-01T07:44:48;4.37;;;3.23;;
15393;SDS011;7795;47.986;11.868;2023-08-01T07:47:14;2.90;;;2.70;;
15393;SDS011;7795;47.986;11.868;2023-08-01T07:49:39;2.90;;;2.50;;
15393;SDS011;7795;47.986;11.868;2023-08-01T07:52:05;2.97;;;2.40;;
15393;SDS011;7795;47.986;11.868;2023-08-01T07:54:33;3.57;;;3.20;;
15393;SDS011;7795;47.986;11.868;2023-08-01T07:56:59;3.07;;;2.77;;
15393;SDS011;7795;47.986;11.868;2023-08-01T07:59:24;2.67;;;2.40;;
15393;SDS011;7795;47.986;11.868;2023-08-01T08:01:50;3.53;;;2.50;;
15393;SDS011;7795;47.986;11.868;2023-08-01T08:04:17;4.87;;;2.93;;
15393;SDS011;7795;47.986;11.868;2023-08-01T08:06:43;3.80;;;2.87;;
15393;SDS011;7795;47.986;11.868;2023-08-01T08:09:09;3.93;;;3.30;;
15393;SDS011;7795;47.986;11.868;2023-08-01T08:11:36;3.43;;;2.60;;
15393;SDS011;7795;47.986;11.868;2023-08-01T08:14:02;3.87;;;3.30;;
15393;SDS011;7795;47.986;11.868;2023-08-01T08:16:28;3.07;;;2.50;;
15393;SDS011;7795;47.986;11.868;2023-08-01T08:18:54;3.37;;;3.00;;
15393;SDS011;7795;47.986;11.868;2023-08-01T08:21:20;2.97;;;2.60;;
15393;SDS011;7795;47.986;11.868;2023-08-01T08:23:45;3.57;;;2.80;;
15393;SDS011;7795;47.986;11.868;2023-08-01T08:26:11;3.93;;;2.47;;
15393;SDS011;7795;47.986;11.868;2023-08-01T08:28:38;4.67;;;2.90;;
15393;SDS011;7795;47.986;11.868;2023-08-01T08:31:05;4.87;;;2.90;;
15393;SDS011;7795;47.986;11.868;2023-08-01T08:33:31;4.17;;;2.60;;
15393;SDS011;7795;47.986;11.868;2023-08-01T08:35:56;4.03;;;2.63;;
15393;SDS011;7795;47.986;11.868;2023-08-01T08:38:22;3.87;;;2.80;;
15393;SDS011;7795;47.986;11.868;2023-08-01T08:40:51;3.37;;;2.80;;
15393;SDS011;7795;47.986;11.868;2023-08-01T08:43:25;3.33;;;2.57;;
15393;SDS011;7795;47.986;11.868;2023-08-01T08:45:53;3.90;;;2.77;;
15393;SDS011;7795;47.986;11.868;2023-08-01T08:48:22;3.83;;;3.10;;
15393;SDS011;7795;47.986;11.868;2023-08-01T08:50:49;4.93;;;3.13;;
15393;SDS011;7795;47.986;11.868;2023-08-01T08:53:16;4.57;;;2.73;;
15393;SDS011;7795;47.986;11.868;2023-08-01T08:55:42;4.33;;;3.00;;
15393;SDS011;7795;47.986;11.868;2023-08-01T08:58:08;3.53;;;2.57;;
15393;SDS011;7795;47.986;11.868;2023-08-01T09:00:35;5.07;;;2.63;;
15393;SDS011;7795;47.986;11.868;2023-08-01T09:03:02;3.77;;;2.70;;
15393;SDS011;7795;47.986;11.868;2023-08-01T09:05:29;3.57;;;2.90;;
15393;SDS011;7795;47.986;11.868;2023-08-01T09:07:59;4.37;;;3.00;;
15393;SDS011;7795;47.986;11.868;2023-08-01T09:10:30;4.27;;;3.20;;
15393;SDS011;7795;47.986;11.868;2023-08-01T09:12:56;5.43;;;3.10;;
15393;SDS011;7795;47.986;11.868;2023-08-01T09:15:22;3.73;;;3.20;;
15393;SDS011;7795;47.986;11.868;2023-08-01T09:17:49;5.23;;;3.20;;
15393;SDS011;7795;47.986;11.868;2023-08-01T09:20:17;5.57;;;3.30;;
15393;SDS011;7795;47.986;11.868;2023-08-01T09:22:43;3.50;;;2.93;;
15393;SDS011;7795;47.986;11.868;2023-08-01T09:25:10;4.43;;;3.07;;
15393;SDS011;7795;47.986;11.868;2023-08-01T09:27:36;4.17;;;2.67;;
15393;SDS011;7795;47.986;11.868;2023-08-01T09:30:06;3.23;;;2.83;;
15393;SDS011;7795;47.986;11.868;2023-08-01T09:32:33;4.50;;;3.30;;
15393;SDS011;7795;47.986;11.868;2023-08-01T09:34:59;4.00;;;3.10;;
15393;SDS011;7795;47.986;11.868;2023-08-01T09:37:26;3.93;;;3.20;;
15393;SDS011;7795;47.986;11.868;2023-08-01T09:40:02;4.40;;;3.47;;
15393;SDS011;7795;47.986;11.868;2023-08-01T09:42:36;3.90;;;3.00;;
15393;SDS011;7795;47.986;11.868;2023-08-01T09:45:05;4.03;;;2.80;;
15393;SDS011;7795;47.986;11.868;2023-08-01T09:47:36;6.50;;;3.20;;
15393;SDS011;7795;47.986;11.868;2023-08-01T09:50:02;4.83;;;3.60;;
15393;SDS011;7795;47.986;11.868;2023-08-01T09:52:29;4.37;;;3.57;;
15393;SDS011;7795;47.986;11.868;2023-08-01T09:54:55;6.03;;;3.90;;
15393;SDS011;7795;47.986;11.868;2023-08-01T09:57:21;4.67;;;3.73;;
15393;SDS011;7795;47.986;11.868;2023-08-01T09:59:48;5.47;;;4.40;;
15393;SDS011;7795;47.986;11.868;2023-08-01T10:02:15;7.57;;;4.53;;
15393;SDS011;7795;47.986;11.868;2023-08-01T10:04:45;4.40;;;2.90;;
15393;SDS011;7795;47.986;11.868;2023-08-01T10:07:12;3.47;;;3.10;;
15393;SDS011;7795;47.986;11.868;2023-08-01T10:09:41;3.97;;;2.60;;
15393;SDS011;7795;47.986;11.868;2023-08-01T10:12:08;3.60;;;2.60;;
15393;SDS011;7795;47.986;11.868;2023-08-01T10:14:38;3.93;;;2.90;;
15393;SDS011;7795;47.986;11.868;2023-08-01T10:17:04;5.03;;;3.30;;
15393;SDS011;7795;47.986;11.868;2023-08-01T10:19:32;4.30;;;2.83;;
15393;SDS011;7795;47.986;11.868;2023-08-01T10:21:58;3.40;;;2.90;;
15393;SDS011;7795;47.986;11.868;2023-08-01T10:24:25;4.67;;;3.03;;
15393;SDS011;7795;47.986;11.868;2023-08-01T10:26:54;4.90;;;3.20;;
15393;SDS011;7795;47.986;11.868;2023-08-01T10:29:19;4.60;;;3.13;;
15393;SDS011;7795;47.986;11.868;2023-08-01T10:31:52;5.27;;;3.43;;
15393;SDS011;7795;47.986;11.868;2023-08-01T10:34:18;3.43;;;2.67;;
15393;SDS011;7795;47.986;11.868;2023-08-01T10:36:53;3.57;;;3.07;;
15393;SDS011;7795;47.986;11.868;2023-08-01T10:39:20;4.03;;;2.77;;
15393;SDS011;7795;47.986;11.868;2023-08-01T10:41:46;4.53;;;2.93;;
15393;SDS011;7795;47.986;11.868;2023-08-01T10:44:24;3.87;;;2.60;;
15393;SDS011;7795;47.986;11.868;2023-08-01T10:46:51;4.90;;;3.00;;
15393;SDS011;7795;47.986;11.868;2023-08-01T10:49:18;3.90;;;2.50;;
15393;SDS011;7795;47.986;11.868;2023-08-01T10:51:46;4.13;;;3.20;;
15393;SDS011;7795;47.986;11.868;2023-08-01T10:54:19;4.20;;;3.13;;
15393;SDS011;7795;47.986;11.868;2023-08-01T10:56:49;3.43;;;2.93;;
15393;SDS011;7795;47.986;11.868;2023-08-01T10:59:17;3.60;;;2.87;;
15393;SDS011;7795;47.986;11.868;2023-08-01T11:01:44;4.03;;;2.87;;
15393;SDS011;7795;47.986;11.868;2023-08-01T11:04:13;4.73;;;2.97;;
15393;SDS011;7795;47.986;11.868;2023-08-01T11:06:42;4.27;;;2.83;;
15393;SDS011;7795;47.986;11.868;2023-08-01T11:09:15;3.50;;;2.53;;
15393;SDS011;7795;47.986;11.868;2023-08-01T11:11:42;3.07;;;2.77;;
15393;SDS011;7795;47.986;11.868;2023-08-01T11:14:08;3.83;;;2.73;;
15393;SDS011;7795;47.986;11.868;2023-08-01T11:16:36;4.40;;;2.93;;
15393;SDS011;7795;47.986;11.868;2023-08-01T11:19:02;4.13;;;2.80;;
15393;SDS011;7795;47.986;11.868;2023-08-01T11:21:28;4.13;;;2.70;;
15393;SDS011;7795;47.986;11.868;2023-08-01T11:23:54;3.57;;;2.60;;
15393;SDS011;7795;47.986;11.868;2023-08-01T11:26:21;3.03;;;2.60;;
15393;SDS011;7795;47.986;11.868;2023-08-01T11:28:46;3.97;;;2.90;;
15393;SDS011;7795;47.986;11.868;2023-08-01T11:31:12;3.33;;;2.70;;
15393;SDS011;7795;47.986;11.868;2023-08-01T11:33:40;3.13;;;2.47;;
15393;SDS011;7795;47.986;11.868;2023-08-01T11:36:06;2.97;;;2.10;;
15393;SDS011;7795;47.986;11.868;2023-08-01T11:38:33;3.40;;;2.17;;
15393;SDS011;7795;47.986;11.868;2023-08-01T11:41:00;2.37;;;2.03;;
15393;SDS011;7795;47.986;11.868;2023-08-01T11:43:26;3.30;;;2.40;;
15393;SDS011;7795;47.986;11.868;2023-08-01T11:46:02;3.90;;;2.70;;
15393;SDS011;7795;47.986;11.868;2023-08-01T11:48:28;3.57;;;2.63;;
15393;SDS011;7795;47.986;11.868;2023-08-01T11:50:57;2.80;;;2.27;;
15393;SDS011;7795;47.986;11.868;2023-08-01T11:53:24;3.80;;;2.57;;
15393;SDS011;7795;47.986;11.868;2023-08-01T11:55:50;4.47;;;2.87;;
15393;SDS011;7795;47.986;11.868;2023-08-01T11:58:27;3.33;;;2.30;;
15393;SDS011;7795;47.986;11.868;2023-08-01T12:01:00;4.87;;;2.50;;
15393;SDS011;7795;47.986;11.868;2023-08-01T12:03:27;5.00;;;2.40;;
15393;SDS011;7795;47.986;11.868;2023-08-01T12:06:02;2.80;;;2.40;;
15393;SDS011;7795;47.986;11.868;2023-08-01T12:08:31;4.70;;;2.83;;
15393;SDS011;7795;47.986;11.868;2023-08-01T12:10:57;4.23;;;2.43;;
15393;SDS011;7795;47.986;11.868;2023-08-01T12:13:23;3.60;;;2.80;;
15393;SDS011;7795;47.986;11.868;2023-08-01T12:15:50;3.60;;;2.50;;
15393;SDS011;7795;47.986;11.868;2023-08-01T12:18:21;4.47;;;2.90;;
15393;SDS011;7795;47.986;11.868;2023-08-01T12:20:47;3.70;;;2.73;;
15393;SDS011;7795;47.986;11.868;2023-08-01T12:23:14;3.80;;;2.37;;
15393;SDS011;7795;47.986;11.868;2023-08-01T12:25:40;3.30;;;2.50;;
15393;SDS011;7795;47.986;11.868;2023-08-01T12:28:06;3.30;;;3.00;;
15393;SDS011;7795;47.986;11.868;2023-08-01T12:30:32;3.30;;;2.47;;
15393;SDS011;7795;47.986;11.868;2023-08-01T12:32:57;3.13;;;2.30;;
15393;SDS011;7795;47.986;11.868;2023-08-01T12:35:23;3.23;;;2.50;;
15393;SDS011;7795;47.986;11.868;2023-08-01T12:37:49;2.47;;;2.17;;
15393;SDS011;7795;47.986;11.868;2023-08-01T12:40:18;2.80;;;1.93;;
15393;SDS011;7795;47.986;11.868;2023-08-01T12:42:44;2.57;;;1.77;;
15393;SDS011;7795;47.986;11.868;2023-08-01T12:45:11;2.53;;;1.90;;
15393;SDS011;7795;47.986;11.868;2023-08-01T12:47:37;2.40;;;1.80;;
15393;SDS011;7795;47.986;11.868;2023-08-01T12:50:03;3.93;;;2.10;;
15393;SDS011;7795;47.986;11.868;2023-08-01T12:52:29;2.30;;;1.93;;
15393;SDS011;7795;47.986;11.868;2023-08-01T12:54:55;2.80;;;2.00;;
15393;SDS011;7795;47.986;11.868;2023-08-01T12:57:22;2.23;;;2.00;;
15393;SDS011;7795;47.986;11.868;2023-08-01T12:59:48;2.57;;;1.70;;
15393;SDS011;7795;47.986;11.868;2023-08-01T13:02:14;3.90;;;1.70;;
15393;SDS011;7795;47.986;11.868;2023-08-01T13:04:40;2.03;;;1.47;;
15393;SDS011;7795;47.986;11.868;2023-08-01T13:07:05;2.20;;;1.50;;
15393;SDS011;7795;47.986;11.868;2023-08-01T13:09:31;2.10;;;1.70;;
15393;SDS011;7795;47.986;11.868;2023-08-01T13:11:57;1.60;;;1.40;;
15393;SDS011;7795;47.986;11.868;2023-08-01T13:14:26;1.87;;;1.67;;
15393;SDS011;7795;47.986;11.868;2023-08-01T13:16:52;2.37;;;1.50;;
15393;SDS011;7795;47.986;11.868;2023-08-01T13:19:17;1.53;;;1.43;;
15393;SDS011;7795;47.986;11.868;2023-08-01T13:21:43;3.77;;;1.40;;
15393;SDS011;7795;47.986;11.868;2023-08-01T13:24:09;1.90;;;1.37;;
15393;SDS011;7795;47.986;11.868;2023-08-01T13:26:35;1.63;;;1.50;;
15393;SDS011;7795;47.986;11.868;2023-08-01T13:29:01;2.03;;;1.30;;
15393;SDS011;7795;47.986;11.868;2023-08-01T13:31:28;2.30;;;1.30;;
15393;SDS011;7795;47.986;11.868;2023-08-01T13:33:54;1.80;;;1.30;;
15393;SDS011;7795;47.986;11.868;2023-08-01T13:36:20;2.20;;;1.20;;
15393;SDS011;7795;47.986;11.868;2023-08-01T13:38:46;2.17;;;1.30;;
15393;SDS011;7795;47.986;11.868;2023-08-01T13:41:12;3.13;;;1.77;;
15393;SDS011;7795;47.986;11.868;2023-08-01T13:43:38;1.60;;;1.40;;
15393;SDS011;7795;47.986;11.868;2023-08-01T13:46:09;1.50;;;1.10;;
15393;SDS011;7795;47.986;11.868;2023-08-01T13:48:38;1.87;;;1.33;;
15393;SDS011;7795;47.986;11.868;2023-08-01T13:51:04;2.47;;;1.57;;
15393;SDS011;7795;47.986;11.868;2023-08-01T13:53:30;2.53;;;1.23;;
15393;SDS011;7795;47.986;11.868;2023-08-01T13:55:56;1.60;;;1.40;;
15393;SDS011;7795;47.986;11.868;2023-08-01T13:58:21;2.73;;;1.33;;
15393;SDS011;7795;47.986;11.868;2023-08-01T14:00:47;1.83;;;1.40;;
15393;SDS011;7795;47.986;11.868;2023-08-01T14:03:13;1.80;;;1.27;;
15393;SDS011;7795;47.986;11.868;2023-08-01T14:05:40;2.00;;;1.57;;
15393;SDS011;7795;47.986;11.868;2023-08-01T14:08:06;2.63;;;1.30;;
15393;SDS011;7795;47.986;11.868;2023-08-01T14:10:32;2.27;;;1.60;;
15393;SDS011;7795;47.986;11.868;2023-08-01T14:12:58;2.07;;;1.40;;
15393;SDS011;7795;47.986;11.868;2023-08-01T14:15:23;1.60;;;1.20;;
15393;SDS011;7795;47.986;11.868;2023-08-01T14:17:49;1.40;;;1.30;;
15393;SDS011;7795;47.986;11.868;2023-08-01T14:20:15;2.03;;;1.60;;
15393;SDS011;7795;47.986;11.868;2023-08-01T14:22:42;2.33;;;1.53;;
15393;SDS011;7795;47.986;11.868;2023-08-01T14:25:08;2.40;;;1.50;;
15393;SDS011;7795;47.986;11.868;2023-08-01T14:27:34;1.97;;;1.60;;
15393;SDS011;7795;47.986;11.868;2023-08-01T14:30:00;1.80;;;1.50;;
15393;SDS011;7795;47.986;11.868;2023-08-01T14:32:27;1.40;;;1.30;;
15393;SDS011;7795;47.986;11.868;2023-08-01T14:34:53;3.03;;;1.03;;
15393;SDS011;7795;47.986;11.868;2023-08-01T14:37:19;1.60;;;1.43;;
15393;SDS011;7795;47.986;11.868;2023-08-01T14:39:50;2.70;;;1.40;;
15393;SDS011;7795;47.986;11.868;2023-08-01T14:42:16;1.83;;;1.30;;
15393;SDS011;7795;47.986;11.868;2023-08-01T14:44:41;2.87;;;2.13;;
15393;SDS011;7795;47.986;11.868;2023-08-01T14:47:07;1.67;;;1.10;;